createdAt,value
2018-03-30T00:02:17.298Z,100881.24
2018-03-30T00:05:20.603Z,100880.03
2018-03-30T00:08:23.916Z,100891.47
2018-03-30T00:11:29.130Z,100892.05
2018-03-30T00:14:32.463Z,100893.19
2018-03-30T00:17:36.564Z,100890.77
2018-03-30T00:20:39.874Z,100891.74
2018-03-30T00:23:43.963Z,100891.64
2018-03-30T00:26:47.299Z,100895.38
2018-03-30T00:29:51.368Z,100894.73
2018-03-30T00:32:54.889Z,100891.69
2018-03-30T01:40:59.336Z,100864.89
2018-03-30T04:21:43.258Z,100869.27
2018-03-30T07:25:59.153Z,100902.85
2018-03-30T07:29:02.504Z,100904.06
2018-03-30T07:32:23.777Z,100904.66
2018-03-30T07:35:46.555Z,100903.72
2018-03-30T07:38:50.105Z,100907.02
2018-03-30T07:41:53.435Z,100910.47
2018-03-30T07:44:56.769Z,100915.75
2018-03-30T07:48:00.091Z,100908.76
2018-03-30T07:51:03.412Z,100900.15
2018-03-30T07:54:06.734Z,100898.14
2018-03-30T07:57:10.827Z,100896.75
2018-03-30T08:00:14.134Z,100901.11
2018-03-30T08:03:17.469Z,100906.95
2018-03-30T08:06:20.792Z,100903.88
2018-03-30T08:09:24.112Z,100907.73
2018-03-30T08:12:27.417Z,100900.25
2018-03-30T08:15:30.753Z,100904.61
2018-03-30T08:18:34.093Z,100904.28
2018-03-30T08:21:37.400Z,100903.16
2018-03-30T08:24:40.715Z,100904.93
2018-03-30T08:27:44.033Z,100903.73
2018-03-30T08:30:48.123Z,100901.91
2018-03-30T08:33:51.429Z,100902.74
2018-03-30T08:36:55.517Z,100908.73
2018-03-30T08:39:58.845Z,100906.86
2018-03-30T08:43:02.913Z,100907.88
2018-03-30T08:46:06.241Z,100905.11
2018-03-30T08:49:09.563Z,100915.05
2018-03-30T08:52:13.651Z,100914.08
2018-03-30T08:55:16.950Z,100916.29
2018-03-30T08:58:20.273Z,100913.93
2018-03-30T09:01:23.591Z,100913.64
2018-03-30T09:04:26.882Z,100907.14
2018-03-30T09:07:30.199Z,100906.12
2018-03-30T09:10:33.504Z,100901.22
2018-03-30T09:13:36.826Z,100899.39
2018-03-30T09:16:40.126Z,100896.74
2018-03-30T09:19:43.445Z,100901.25
2018-03-30T09:22:47.508Z,100884.52
2018-03-30T09:25:50.822Z,100893.30
2018-03-30T09:28:54.122Z,100895.24
2018-03-30T09:31:57.434Z,100894.33
2018-03-30T09:35:01.523Z,100895.11
2018-03-30T09:38:04.818Z,100896.84
2018-03-30T09:41:08.126Z,100902.03
2018-03-30T09:44:11.418Z,100900.51
2018-03-30T09:47:14.734Z,100901.59
2018-03-30T09:50:18.794Z,100908.34
2018-03-30T09:53:22.110Z,100892.75
2018-03-30T09:56:25.415Z,100895.94
2018-03-30T09:59:28.728Z,100907.35
2018-03-30T10:02:32.023Z,100912.86
2018-03-30T10:05:35.338Z,100907.34
2018-03-30T10:08:39.410Z,100905.61
2018-03-30T10:11:42.728Z,100911.91
2018-03-30T10:14:46.055Z,100907.41
2018-03-30T10:17:49.352Z,100913.34
2018-03-30T10:20:52.666Z,100910.44
2018-03-30T10:23:55.979Z,100910.79
2018-03-30T10:26:59.319Z,100898.70
2018-03-30T10:30:02.645Z,100900.85
2018-03-30T10:33:05.938Z,100898.91
2018-03-30T10:36:09.262Z,100889.85
2018-03-30T10:39:12.559Z,100888.94
2018-03-30T10:42:15.874Z,100883.88
2018-03-30T10:45:19.189Z,100883.03
2018-03-30T10:48:22.515Z,100880.87
2018-03-30T10:51:25.807Z,100874.89
2018-03-30T10:54:29.123Z,100865.73
2018-03-30T10:57:32.422Z,100865.19
2018-03-30T11:00:35.734Z,100852.34
2018-03-30T11:03:39.027Z,100853.59
2018-03-30T11:06:42.339Z,100852.97
2018-03-30T11:09:45.657Z,100851.55
2018-03-30T11:12:48.975Z,100851.66
2018-03-30T11:15:53.051Z,100841.93
2018-03-30T11:18:56.342Z,100839.16
2018-03-30T11:21:59.672Z,100835.64
2018-03-30T11:25:03.730Z,100834.25
2018-03-30T11:28:07.047Z,100830.27
2018-03-30T11:31:10.343Z,100828.92
2018-03-30T11:34:13.686Z,100827.34
2018-03-30T11:37:17.746Z,100825.39
2018-03-30T11:40:21.062Z,100829.75
2018-03-30T11:43:24.378Z,100824.89
2018-03-30T11:46:27.693Z,100815.77
2018-03-30T11:49:31.751Z,100813.89
2018-03-30T11:52:35.079Z,100813.78
2018-03-30T11:55:38.365Z,100823.27
2018-03-30T11:58:41.678Z,100809.02
2018-03-30T12:01:44.996Z,100810.48
2018-03-30T12:04:48.306Z,100790.99
2018-03-30T12:07:51.608Z,100795.75
2018-03-30T12:10:54.935Z,100794.40
2018-03-30T12:13:58.231Z,100788.05
2018-03-30T12:17:01.542Z,100790.81
2018-03-30T12:20:04.871Z,100785.20
2018-03-30T12:23:08.934Z,100778.61
2018-03-30T12:26:12.242Z,100788.50
2018-03-30T12:29:15.567Z,100782.08
2018-03-30T12:32:19.642Z,100785.56
2018-03-30T12:35:22.930Z,100773.60
2018-03-30T12:38:26.246Z,100778.10
2018-03-30T12:41:29.546Z,100763.84
2018-03-30T12:44:32.885Z,100766.63
2018-03-30T12:47:36.180Z,100754.43
2018-03-30T12:50:39.490Z,100764.00
2018-03-30T12:53:42.787Z,100753.66
2018-03-30T12:56:46.102Z,100745.30
2018-03-30T12:59:49.394Z,100748.45
2018-03-30T13:02:52.713Z,100740.76
2018-03-30T13:05:56.007Z,100745.44
2018-03-30T13:08:59.327Z,100744.55
2018-03-30T13:12:02.638Z,100745.15
2018-03-30T13:15:06.698Z,100737.23
2018-03-30T13:18:10.004Z,100744.02
2018-03-30T13:21:13.302Z,100738.25
2018-03-30T13:24:16.614Z,100739.28
2018-03-30T13:27:19.907Z,100739.50
2018-03-30T13:30:23.214Z,100735.64
2018-03-30T13:33:26.506Z,100738.44
2018-03-30T13:36:29.828Z,100746.02
2018-03-30T13:39:33.883Z,100744.84
2018-03-30T13:42:37.194Z,100743.52
2018-03-30T13:45:40.484Z,100746.05
2018-03-30T13:48:43.814Z,100736.11
2018-03-30T13:51:56.470Z,100729.89
2018-03-30T13:55:01.243Z,100721.09
2018-03-30T13:58:11.146Z,100704.21
2018-03-30T14:01:19.211Z,100705.11
2018-03-30T14:04:40.004Z,100695.36
2018-03-30T14:07:47.982Z,100692.98
2018-03-30T14:11:09.996Z,100703.70
2018-03-30T14:14:13.323Z,100700.87
2018-03-30T14:17:21.768Z,100694.94
2018-03-30T14:20:30.519Z,100686.87
2018-03-30T14:23:38.994Z,100688.72
2018-03-30T14:48:39.103Z,100635.75
2018-03-30T14:51:49.251Z,100631.23
2018-03-30T14:55:01.355Z,100630.16
2018-03-30T15:13:07.549Z,100593.75
2018-03-30T15:16:35.627Z,100589.27
2018-03-30T15:19:43.697Z,100592.95
2018-03-30T15:26:41.981Z,100578.80
2018-03-30T15:30:06.778Z,100581.80
2018-03-30T15:33:26.989Z,100581.08
2018-03-30T15:40:04.404Z,100596.15
2018-03-30T15:43:11.100Z,100592.72
2018-03-30T15:49:58.147Z,100608.86
2018-03-30T15:53:01.473Z,100613.17
2018-03-30T15:56:05.590Z,100608.48
2018-03-30T15:59:08.930Z,100620.14
2018-03-30T16:02:12.992Z,100618.39
2018-03-30T16:05:16.314Z,100615.86
2018-03-30T16:08:19.615Z,100624.14
2018-03-30T16:11:30.134Z,100617.09
2018-03-30T16:14:33.447Z,100619.36
2018-03-30T16:17:36.770Z,100620.59
2018-03-30T16:20:39.283Z,100614.91
2018-03-30T16:23:41.807Z,100621.47
2018-03-30T16:26:44.342Z,100629.67
2018-03-30T16:29:46.868Z,100626.09
2018-03-30T16:32:49.419Z,100634.65
2018-03-30T16:35:51.925Z,100641.29
2018-03-30T16:38:54.464Z,100628.47
2018-03-30T16:41:56.975Z,100630.94
2018-03-30T16:44:59.503Z,100629.75
2018-03-30T16:48:02.011Z,100620.11
2018-03-30T16:51:04.539Z,100623.97
2018-03-30T16:54:07.437Z,100622.52
2018-03-30T16:57:10.748Z,100611.61
2018-03-30T17:00:13.480Z,100614.03
2018-03-30T17:03:16.016Z,100624.55
2018-03-30T17:06:20.324Z,100622.30
2018-03-30T17:09:23.599Z,100620.21
2018-03-30T17:12:27.824Z,100617.73
2018-03-30T17:15:31.165Z,100619.30
2018-03-30T17:18:34.470Z,100620.03
2018-03-30T17:21:37.012Z,100609.97
2018-03-30T17:24:39.538Z,100603.31
2018-03-30T17:27:42.048Z,100611.08
2018-03-30T17:30:56.267Z,100618.56
2018-03-30T17:33:58.935Z,100619.35
2018-03-30T17:37:06.865Z,100627.77
2018-03-30T17:40:11.151Z,100626.41
2018-03-30T17:43:15.355Z,100625.97
2018-03-30T17:46:18.887Z,100635.33
2018-03-30T17:49:21.406Z,100630.44
2018-03-30T17:52:24.695Z,100633.50
2018-03-30T17:55:27.215Z,100632.80
2018-03-30T17:58:29.805Z,100642.55
2018-03-30T18:01:33.062Z,100652.11
2018-03-30T18:04:36.339Z,100656.88
2018-03-30T18:07:38.854Z,100664.03
2018-03-30T18:10:41.358Z,100651.23
2018-03-30T18:13:43.882Z,100655.70
2018-03-30T18:16:47.150Z,100657.30
2018-03-30T18:19:49.672Z,100658.42
2018-03-30T18:22:52.186Z,100656.69
2018-03-30T18:25:54.706Z,100668.05
2018-03-30T18:28:57.222Z,100672.48
2018-03-30T18:31:59.726Z,100672.02
2018-03-30T18:35:02.248Z,100669.52
2018-03-30T18:38:05.523Z,100673.51
2018-03-30T18:41:08.048Z,100670.36
2018-03-30T18:44:10.590Z,100673.22
2018-03-30T18:47:13.095Z,100683.41
2018-03-30T18:50:15.650Z,100671.27
2018-03-30T18:53:18.147Z,100668.09
2018-03-30T18:56:20.646Z,100672.05
2018-03-30T18:59:23.179Z,100666.89
2018-03-30T19:02:25.702Z,100668.61
2018-03-30T19:05:28.211Z,100668.80
2018-03-30T19:08:30.734Z,100661.42
2018-03-30T19:11:33.266Z,100656.91
2018-03-30T19:14:35.780Z,100656.34
2018-03-30T19:17:39.087Z,100649.46
2018-03-30T19:20:41.587Z,100647.45
2018-03-30T19:23:44.106Z,100649.31
2018-03-30T19:26:46.602Z,100651.40
2018-03-30T19:29:49.882Z,100653.06
2018-03-30T19:32:52.406Z,100651.65
2018-03-30T19:35:54.926Z,100650.55
2018-03-30T19:38:57.448Z,100648.40
2018-03-30T19:41:59.982Z,100644.80
2018-03-30T19:45:02.489Z,100642.12
2018-03-30T19:48:05.774Z,100645.14
2018-03-30T19:51:08.285Z,100639.22
2018-03-30T19:54:10.803Z,100633.28
2018-03-30T19:57:13.303Z,100632.12
2018-03-30T20:00:15.827Z,100627.83
2018-03-30T20:03:18.350Z,100625.07
2018-03-30T20:06:20.866Z,100618.66
2018-03-30T20:09:23.366Z,100632.53
2018-03-30T20:12:25.886Z,100631.02
2018-03-30T20:15:28.423Z,100636.98
2018-03-30T20:18:30.928Z,100626.91
2018-03-30T20:21:33.452Z,100625.49
2018-03-30T20:24:35.975Z,100626.91
2018-03-30T20:27:38.475Z,100623.41
2018-03-30T20:30:40.998Z,100629.53
2018-03-30T20:33:43.541Z,100613.47
2018-03-30T20:36:46.064Z,100615.20
2018-03-30T20:39:48.567Z,100609.27
2018-03-30T20:42:51.083Z,100611.11
2018-03-30T20:45:54.369Z,100617.98
2018-03-30T20:48:56.887Z,100609.87
2018-03-30T20:51:59.411Z,100604.51
2018-03-30T20:55:01.939Z,100606.27
2018-03-30T20:58:04.456Z,100599.89
2018-03-30T21:01:06.966Z,100599.30
2018-03-30T21:04:10.254Z,100592.53
2018-03-30T21:07:12.758Z,100598.03
2018-03-30T21:10:15.283Z,100588.66
2018-03-30T21:13:17.802Z,100593.94
2018-03-30T21:16:21.070Z,100590.10
2018-03-30T21:19:23.598Z,100578.86
2018-03-30T21:22:26.098Z,100594.72
2018-03-30T21:25:28.615Z,100589.19
2018-03-30T21:28:31.118Z,100584.64
2018-03-30T21:31:33.639Z,100586.16
2018-03-30T21:34:36.166Z,100585.06
2018-03-30T21:37:38.683Z,100585.31
2018-03-30T21:40:41.186Z,100582.04
2018-03-30T21:43:43.723Z,100593.77
2018-03-30T21:46:46.227Z,100597.78
2018-03-30T21:49:48.746Z,100591.44
2018-03-30T21:52:52.016Z,100595.78
2018-03-30T21:55:54.542Z,100589.75
2018-03-30T21:58:57.067Z,100591.69
2018-03-30T22:01:59.578Z,100582.56
2018-03-30T22:05:02.866Z,100577.28
2018-03-30T22:08:06.142Z,100566.00
2018-03-30T22:11:08.662Z,100574.10
2018-03-30T22:14:11.162Z,100561.88
2018-03-30T22:17:13.691Z,100559.27
2018-03-30T22:20:16.194Z,100563.95
2018-03-30T22:23:18.710Z,100559.72
2018-03-30T22:26:21.243Z,100567.16
2018-03-30T22:29:24.541Z,100555.98
2018-03-30T22:32:27.838Z,100557.67
2018-03-30T22:35:31.102Z,100557.84
2018-03-30T22:38:33.650Z,100554.46
2018-03-30T22:41:36.145Z,100554.46
2018-03-30T22:44:38.671Z,100551.47
2018-03-30T22:47:41.174Z,100546.70
2018-03-30T22:50:43.700Z,100551.22
2018-03-30T22:53:46.201Z,100554.56
2018-03-30T22:56:48.722Z,100537.58
2018-03-30T22:59:51.226Z,100537.16
2018-03-30T23:02:53.751Z,100531.16
2018-03-30T23:05:56.246Z,100526.72
2018-03-30T23:08:58.778Z,100530.31
2018-03-30T23:12:02.042Z,100523.94
2018-03-30T23:15:04.563Z,100515.09
2018-03-30T23:18:07.846Z,100510.05
2018-03-30T23:21:11.110Z,100505.86
2018-03-30T23:24:13.627Z,100510.63
2018-03-30T23:27:16.914Z,100504.17
2018-03-30T23:30:20.190Z,100490.19
2018-03-30T23:33:22.714Z,100496.24
2018-03-30T23:36:25.242Z,100490.11
2018-03-30T23:39:27.767Z,100481.16
2018-03-30T23:42:30.271Z,100496.88
2018-03-30T23:45:32.790Z,100501.50
2018-03-30T23:48:35.299Z,100489.02
2018-03-30T23:51:37.825Z,100486.03
2018-03-30T23:54:40.326Z,100498.89
2018-03-30T23:57:43.618Z,100494.55
